METAR rapporten vliegvelden

   
EBAW - Antwerp
Gewijzigd: 23-08-2019 20:20
Helder  
Helder  
   Wind: NO 11.1 km/h
Wind: NO 11.1 km/h
Temperatuur: 24°C
Dauwpunt: 13°C
Vochtigheid: 50%
Barometer: 1023 hPa
Zicht: meer dan 10 km
Bewolking: Helder
EBAW 231820Z 04006KT 010V070 CAVOK 24/13 Q1023 NOSIG
EBLG - Li├Ęge
Gewijzigd: 23-08-2019 20:20
Helder  
Helder  
   Wind: NNO 9.3 km/h
Wind: NNO 9.3 km/h
Temperatuur: 22°C
Dauwpunt: 12°C
Vochtigheid: 53%
Barometer: 1023 hPa
Zicht: meer dan 10 km
Bewolking: Helder
EBLG 231820Z 03005KT CAVOK 22/12 Q1023 NOSIG
EBCV - Mons/Bergen
Gewijzigd: 23-08-2019 20:25
Helder  
Helder  
   Wind: NO 11.1 km/h
Wind: NO 11.1 km/h
Temperatuur: 23°C
Dauwpunt: 13°C
Vochtigheid: 53%
Barometer: 1023 hPa
Bewolking: Helder
Zicht: meer dan 10 km
Bewolking: Helder
EBCV 231825Z AUTO 04006KT 9999 NCD 23/13 Q1023 BLU
EHBK - Maastricht
Gewijzigd: 23-08-2019 20:25
Gedeeltelijk bewolkt  
Gedeeltelijk bewolkt  
   Wind: NO 13 km/h
Wind: NO 13 km/h
Temperatuur: 22°C
Dauwpunt: 12°C
Vochtigheid: 53%
Barometer: 1022 hPa
Bewolking: Gedeeltelijk bewolkt
Zicht: meer dan 10 km
Bewolking: Gedeeltelijk bewolkt
EHBK 231825Z AUTO 04007KT 020V080 9999 NSC 22/12 Q1022 NOSIG
ELLX - Luxemburg
Gewijzigd: 23-08-2019 20:20
Helder  
Helder  
   Wind: ONO 11.1 km/h
Wind: ONO 11.1 km/h
Temperatuur: 23°C
Dauwpunt: 9°C
Vochtigheid: 41%
Barometer: 1023 hPa
Zicht: meer dan 10 km
Bewolking: Helder
ELLX 231820Z 07006KT CAVOK 23/09 Q1023 NOSIG
EBOS - Oostende
Gewijzigd: 23-08-2019 20:20
Helder  
Helder  
   Wind: NO 11.1 km/h
Wind: NO 11.1 km/h
Temperatuur: 20°C
Dauwpunt: 15°C
Vochtigheid: 73%
Barometer: 1023 hPa
Zicht: meer dan 10 km
Bewolking: Helder
EBOS 231820Z 05006KT CAVOK 20/15 Q1023 NOSIG

Script ontwikkeld door  Saratoga-weather.org Aangepast voor de template door  Weerstation Leuven